sensor_id;sensor_type;location;lat;lon;timestamp;temperature;humidity
33865;DHT22;20159;51.072;13.526;2023-01-28T00:00:25;3.50;93.00
33865;DHT22;20159;51.072;13.526;2023-01-28T00:02:51;3.50;93.00
33865;DHT22;20159;51.072;13.526;2023-01-28T00:05:17;3.40;93.00
33865;DHT22;20159;51.072;13.526;2023-01-28T00:07:42;3.40;93.20
33865;DHT22;20159;51.072;13.526;2023-01-28T00:10:08;3.40;93.00
33865;DHT22;20159;51.072;13.526;2023-01-28T00:12:34;3.40;93.00
33865;DHT22;20159;51.072;13.526;2023-01-28T00:14:59;3.40;93.10
33865;DHT22;20159;51.072;13.526;2023-01-28T00:17:25;3.40;93.00
33865;DHT22;20159;51.072;13.526;2023-01-28T00:19:50;3.30;93.00
33865;DHT22;20159;51.072;13.526;2023-01-28T00:22:16;3.30;93.00
33865;DHT22;20159;51.072;13.526;2023-01-28T00:24:41;3.30;93.00
33865;DHT22;20159;51.072;13.526;2023-01-28T00:27:07;3.30;93.00
33865;DHT22;20159;51.072;13.526;2023-01-28T00:29:33;3.30;93.00
33865;DHT22;20159;51.072;13.526;2023-01-28T00:31:58;3.30;93.00
33865;DHT22;20159;51.072;13.526;2023-01-28T00:34:24;3.30;93.10
33865;DHT22;20159;51.072;13.526;2023-01-28T00:36:49;3.30;93.10
33865;DHT22;20159;51.072;13.526;2023-01-28T00:39:23;3.30;93.10
33865;DHT22;20159;51.072;13.526;2023-01-28T00:41:50;3.30;93.10
33865;DHT22;20159;51.072;13.526;2023-01-28T00:44:15;3.30;93.10
33865;DHT22;20159;51.072;13.526;2023-01-28T00:46:41;3.30;93.10
33865;DHT22;20159;51.072;13.526;2023-01-28T00:49:07;3.30;93.10
33865;DHT22;20159;51.072;13.526;2023-01-28T00:51:33;3.30;93.10
33865;DHT22;20159;51.072;13.526;2023-01-28T00:53:58;3.30;93.00
33865;DHT22;20159;51.072;13.526;2023-01-28T00:56:24;3.30;93.00
33865;DHT22;20159;51.072;13.526;2023-01-28T00:58:49;3.30;93.00
33865;DHT22;20159;51.072;13.526;2023-01-28T01:01:20;3.30;93.00
33865;DHT22;20159;51.072;13.526;2023-01-28T01:03:47;3.40;93.00
33865;DHT22;20159;51.072;13.526;2023-01-28T01:06:14;3.30;93.00
33865;DHT22;20159;51.072;13.526;2023-01-28T01:08:40;3.30;93.00
33865;DHT22;20159;51.072;13.526;2023-01-28T01:11:08;3.30;93.00
33865;DHT22;20159;51.072;13.526;2023-01-28T01:13:34;3.30;93.00
33865;DHT22;20159;51.072;13.526;2023-01-28T01:16:05;3.30;93.00
33865;DHT22;20159;51.072;13.526;2023-01-28T01:18:32;3.30;93.00
33865;DHT22;20159;51.072;13.526;2023-01-28T01:20:59;3.30;93.10
33865;DHT22;20159;51.072;13.526;2023-01-28T01:23:30;3.30;93.10
33865;DHT22;20159;51.072;13.526;2023-01-28T01:25:56;3.30;93.00
33865;DHT22;20159;51.072;13.526;2023-01-28T01:28:22;3.30;93.00
33865;DHT22;20159;51.072;13.526;2023-01-28T01:30:49;3.30;93.00
33865;DHT22;20159;51.072;13.526;2023-01-28T01:33:15;3.30;93.00
33865;DHT22;20159;51.072;13.526;2023-01-28T01:35:40;3.40;93.00
33865;DHT22;20159;51.072;13.526;2023-01-28T01:38:06;3.30;93.20
33865;DHT22;20159;51.072;13.526;2023-01-28T01:40:32;3.30;92.90
33865;DHT22;20159;51.072;13.526;2023-01-28T01:42:57;3.30;93.00
33865;DHT22;20159;51.072;13.526;2023-01-28T01:45:23;3.30;93.00
33865;DHT22;20159;51.072;13.526;2023-01-28T01:47:57;3.30;93.00
33865;DHT22;20159;51.072;13.526;2023-01-28T01:50:30;3.30;92.90
33865;DHT22;20159;51.072;13.526;2023-01-28T01:53:03;3.30;92.90
33865;DHT22;20159;51.072;13.526;2023-01-28T01:55:33;3.40;93.00
33865;DHT22;20159;51.072;13.526;2023-01-28T01:58:03;3.30;92.90
33865;DHT22;20159;51.072;13.526;2023-01-28T02:00:29;3.30;92.90
33865;DHT22;20159;51.072;13.526;2023-01-28T02:02:55;3.30;92.90
33865;DHT22;20159;51.072;13.526;2023-01-28T02:05:23;3.30;92.90
33865;DHT22;20159;51.072;13.526;2023-01-28T02:07:51;3.30;92.90
33865;DHT22;20159;51.072;13.526;2023-01-28T02:10:19;3.30;92.90
33865;DHT22;20159;51.072;13.526;2023-01-28T02:12:51;3.30;92.90
33865;DHT22;20159;51.072;13.526;2023-01-28T02:15:20;3.30;93.00
33865;DHT22;20159;51.072;13.526;2023-01-28T02:17:46;3.30;93.00
33865;DHT22;20159;51.072;13.526;2023-01-28T02:20:18;3.30;93.00
33865;DHT22;20159;51.072;13.526;2023-01-28T02:22:59;3.30;93.10
33865;DHT22;20159;51.072;13.526;2023-01-28T02:26:01;3.30;93.10
33865;DHT22;20159;51.072;13.526;2023-01-28T02:28:51;3.30;93.10
33865;DHT22;20159;51.072;13.526;2023-01-28T02:31:26;3.30;93.20
33865;DHT22;20159;51.072;13.526;2023-01-28T02:34:35;3.30;93.00
33865;DHT22;20159;51.072;13.526;2023-01-28T02:37:17;3.30;93.00
33865;DHT22;20159;51.072;13.526;2023-01-28T02:39:55;3.30;92.90
33865;DHT22;20159;51.072;13.526;2023-01-28T02:42:28;3.30;92.90
33865;DHT22;20159;51.072;13.526;2023-01-28T02:44:54;3.20;92.80
33865;DHT22;20159;51.072;13.526;2023-01-28T02:47:20;3.20;92.80
33865;DHT22;20159;51.072;13.526;2023-01-28T02:50:11;3.20;92.80
33865;DHT22;20159;51.072;13.526;2023-01-28T02:55:44;3.20;92.90
33865;DHT22;20159;51.072;13.526;2023-01-28T03:06:19;3.10;92.50
33865;DHT22;20159;51.072;13.526;2023-01-28T03:08:57;3.10;92.50
33865;DHT22;20159;51.072;13.526;2023-01-28T03:11:51;3.10;92.60
33865;DHT22;20159;51.072;13.526;2023-01-28T03:14:38;3.10;92.60
33865;DHT22;20159;51.072;13.526;2023-01-28T03:17:45;3.10;92.50
33865;DHT22;20159;51.072;13.526;2023-01-28T03:20:37;3.10;92.50
33865;DHT22;20159;51.072;13.526;2023-01-28T03:23:36;3.00;92.50
33865;DHT22;20159;51.072;13.526;2023-01-28T03:26:23;3.00;92.40
33865;DHT22;20159;51.072;13.526;2023-01-28T03:29:09;3.00;92.40
33865;DHT22;20159;51.072;13.526;2023-01-28T03:31:54;3.00;92.60
33865;DHT22;20159;51.072;13.526;2023-01-28T03:34:39;3.00;92.30
33865;DHT22;20159;51.072;13.526;2023-01-28T03:37:23;2.90;92.20
33865;DHT22;20159;51.072;13.526;2023-01-28T03:39:51;2.90;92.20
33865;DHT22;20159;51.072;13.526;2023-01-28T03:42:16;2.90;92.30
33865;DHT22;20159;51.072;13.526;2023-01-28T03:44:43;2.80;92.20
33865;DHT22;20159;51.072;13.526;2023-01-28T03:47:27;2.80;92.20
33865;DHT22;20159;51.072;13.526;2023-01-28T03:49:54;2.80;92.10
33865;DHT22;20159;51.072;13.526;2023-01-28T03:52:25;2.80;92.20
33865;DHT22;20159;51.072;13.526;2023-01-28T03:54:51;2.80;92.20
33865;DHT22;20159;51.072;13.526;2023-01-28T03:57:22;2.70;92.10
33865;DHT22;20159;51.072;13.526;2023-01-28T03:59:48;2.70;92.10
33865;DHT22;20159;51.072;13.526;2023-01-28T04:02:16;2.70;92.10
33865;DHT22;20159;51.072;13.526;2023-01-28T04:04:42;2.70;92.10
33865;DHT22;20159;51.072;13.526;2023-01-28T04:07:10;2.60;92.00
33865;DHT22;20159;51.072;13.526;2023-01-28T04:09:36;2.60;91.90
33865;DHT22;20159;51.072;13.526;2023-01-28T04:12:03;2.60;91.90
33865;DHT22;20159;51.072;13.526;2023-01-28T04:14:29;2.60;91.90
33865;DHT22;20159;51.072;13.526;2023-01-28T04:16:55;0.80;91.50
33865;DHT22;20159;51.072;13.526;2023-01-28T04:19:21;2.50;92.00
33865;DHT22;20159;51.072;13.526;2023-01-28T04:21:47;2.50;91.90
33865;DHT22;20159;51.072;13.526;2023-01-28T04:24:13;2.50;91.80
33865;DHT22;20159;51.072;13.526;2023-01-28T04:26:39;2.40;91.70
33865;DHT22;20159;51.072;13.526;2023-01-28T04:29:05;2.40;91.80
33865;DHT22;20159;51.072;13.526;2023-01-28T04:31:31;2.30;91.70
33865;DHT22;20159;51.072;13.526;2023-01-28T04:33:56;2.30;91.70
33865;DHT22;20159;51.072;13.526;2023-01-28T04:36:22;2.30;91.80
33865;DHT22;20159;51.072;13.526;2023-01-28T04:38:48;2.30;91.80
33865;DHT22;20159;51.072;13.526;2023-01-28T04:41:14;2.30;91.70
33865;DHT22;20159;51.072;13.526;2023-01-28T04:43:39;2.20;91.70
33865;DHT22;20159;51.072;13.526;2023-01-28T04:46:05;2.20;91.60
33865;DHT22;20159;51.072;13.526;2023-01-28T04:48:31;2.10;91.40
33865;DHT22;20159;51.072;13.526;2023-01-28T04:50:57;2.10;91.30
33865;DHT22;20159;51.072;13.526;2023-01-28T04:53:22;2.10;91.30
33865;DHT22;20159;51.072;13.526;2023-01-28T04:55:48;2.00;91.20
33865;DHT22;20159;51.072;13.526;2023-01-28T04:58:13;2.00;91.10
33865;DHT22;20159;51.072;13.526;2023-01-28T05:00:39;1.90;91.10
33865;DHT22;20159;51.072;13.526;2023-01-28T05:03:04;1.90;91.00
33865;DHT22;20159;51.072;13.526;2023-01-28T05:05:30;1.80;91.00
33865;DHT22;20159;51.072;13.526;2023-01-28T05:07:57;1.80;91.00
33865;DHT22;20159;51.072;13.526;2023-01-28T05:10:23;1.70;91.00
33865;DHT22;20159;51.072;13.526;2023-01-28T05:12:49;1.70;91.00
33865;DHT22;20159;51.072;13.526;2023-01-28T05:15:15;1.70;91.10
33865;DHT22;20159;51.072;13.526;2023-01-28T05:17:41;1.60;91.10
33865;DHT22;20159;51.072;13.526;2023-01-28T05:20:08;1.60;91.20
33865;DHT22;20159;51.072;13.526;2023-01-28T05:22:33;1.50;91.20
33865;DHT22;20159;51.072;13.526;2023-01-28T05:24:59;1.60;91.30
33865;DHT22;20159;51.072;13.526;2023-01-28T05:27:24;1.50;91.30
33865;DHT22;20159;51.072;13.526;2023-01-28T05:29:50;1.50;91.20
33865;DHT22;20159;51.072;13.526;2023-01-28T05:32:15;1.50;91.20
33865;DHT22;20159;51.072;13.526;2023-01-28T05:34:41;1.50;91.20
33865;DHT22;20159;51.072;13.526;2023-01-28T05:37:06;1.50;91.30
33865;DHT22;20159;51.072;13.526;2023-01-28T05:39:32;1.50;91.20
33865;DHT22;20159;51.072;13.526;2023-01-28T05:41:57;1.40;91.20
33865;DHT22;20159;51.072;13.526;2023-01-28T05:44:22;1.40;91.10
33865;DHT22;20159;51.072;13.526;2023-01-28T05:46:48;1.40;91.00
33865;DHT22;20159;51.072;13.526;2023-01-28T05:49:13;1.40;91.10
33865;DHT22;20159;51.072;13.526;2023-01-28T05:51:39;1.40;91.10
33865;DHT22;20159;51.072;13.526;2023-01-28T05:54:05;1.40;91.10
33865;DHT22;20159;51.072;13.526;2023-01-28T05:56:31;1.40;91.20
33865;DHT22;20159;51.072;13.526;2023-01-28T05:58:57;1.30;91.20
33865;DHT22;20159;51.072;13.526;2023-01-28T06:01:22;1.30;91.00
33865;DHT22;20159;51.072;13.526;2023-01-28T06:03:48;1.30;91.00
33865;DHT22;20159;51.072;13.526;2023-01-28T06:06:13;1.30;90.90
33865;DHT22;20159;51.072;13.526;2023-01-28T06:08:40;3.00;91.20
33865;DHT22;20159;51.072;13.526;2023-01-28T06:11:06;1.30;90.70
33865;DHT22;20159;51.072;13.526;2023-01-28T06:13:31;1.30;90.80
33865;DHT22;20159;51.072;13.526;2023-01-28T06:15:57;1.30;90.80
33865;DHT22;20159;51.072;13.526;2023-01-28T06:18:22;1.30;90.80
33865;DHT22;20159;51.072;13.526;2023-01-28T06:20:49;1.30;90.80
33865;DHT22;20159;51.072;13.526;2023-01-28T06:23:15;1.20;90.80
33865;DHT22;20159;51.072;13.526;2023-01-28T06:25:40;1.20;90.70
33865;DHT22;20159;51.072;13.526;2023-01-28T06:28:06;1.30;90.80
33865;DHT22;20159;51.072;13.526;2023-01-28T06:30:31;1.20;90.80
33865;DHT22;20159;51.072;13.526;2023-01-28T06:32:57;1.20;90.90
33865;DHT22;20159;51.072;13.526;2023-01-28T06:35:23;1.20;90.90
33865;DHT22;20159;51.072;13.526;2023-01-28T06:37:49;1.20;90.90
33865;DHT22;20159;51.072;13.526;2023-01-28T06:40:14;3.70;91.50
33865;DHT22;20159;51.072;13.526;2023-01-28T06:42:40;1.20;90.80
33865;DHT22;20159;51.072;13.526;2023-01-28T06:45:06;1.20;90.80
33865;DHT22;20159;51.072;13.526;2023-01-28T06:47:31;1.10;90.80
33865;DHT22;20159;51.072;13.526;2023-01-28T06:49:57;1.20;90.80
33865;DHT22;20159;51.072;13.526;2023-01-28T06:52:22;1.10;90.70
33865;DHT22;20159;51.072;13.526;2023-01-28T06:54:48;1.10;90.70
33865;DHT22;20159;51.072;13.526;2023-01-28T06:57:13;1.10;90.60
33865;DHT22;20159;51.072;13.526;2023-01-28T06:59:38;1.10;90.40
33865;DHT22;20159;51.072;13.526;2023-01-28T07:02:04;1.10;90.30
33865;DHT22;20159;51.072;13.526;2023-01-28T07:04:30;1.10;90.30
33865;DHT22;20159;51.072;13.526;2023-01-28T07:06:56;1.10;90.20
33865;DHT22;20159;51.072;13.526;2023-01-28T07:09:21;1.00;90.20
33865;DHT22;20159;51.072;13.526;2023-01-28T07:11:47;1.00;90.20
33865;DHT22;20159;51.072;13.526;2023-01-28T07:14:12;1.00;90.10
33865;DHT22;20159;51.072;13.526;2023-01-28T07:16:37;1.00;90.10
33865;DHT22;20159;51.072;13.526;2023-01-28T07:19:03;1.00;90.10
33865;DHT22;20159;51.072;13.526;2023-01-28T07:21:28;1.00;90.10
33865;DHT22;20159;51.072;13.526;2023-01-28T07:23:54;1.00;90.10
33865;DHT22;20159;51.072;13.526;2023-01-28T07:26:20;0.90;90.10
33865;DHT22;20159;51.072;13.526;2023-01-28T07:28:45;1.00;90.20
33865;DHT22;20159;51.072;13.526;2023-01-28T07:31:11;1.00;90.00
33865;DHT22;20159;51.072;13.526;2023-01-28T07:33:37;1.00;89.70
33865;DHT22;20159;51.072;13.526;2023-01-28T07:36:03;1.00;89.40
33865;DHT22;20159;51.072;13.526;2023-01-28T07:38:29;3.80;90.20
33865;DHT22;20159;51.072;13.526;2023-01-28T07:40:54;1.00;89.30
33865;DHT22;20159;51.072;13.526;2023-01-28T07:43:20;1.00;89.20
33865;DHT22;20159;51.072;13.526;2023-01-28T07:45:45;1.00;88.80
33865;DHT22;20159;51.072;13.526;2023-01-28T07:48:12;1.00;88.90
33865;DHT22;20159;51.072;13.526;2023-01-28T07:50:38;1.00;88.70
33865;DHT22;20159;51.072;13.526;2023-01-28T07:53:07;1.00;88.80
33865;DHT22;20159;51.072;13.526;2023-01-28T07:55:32;1.00;89.00
33865;DHT22;20159;51.072;13.526;2023-01-28T07:58:01;1.00;88.80
33865;DHT22;20159;51.072;13.526;2023-01-28T08:00:29;1.10;88.70
33865;DHT22;20159;51.072;13.526;2023-01-28T08:02:59;1.10;88.30
33865;DHT22;20159;51.072;13.526;2023-01-28T08:05:47;1.10;88.20
33865;DHT22;20159;51.072;13.526;2023-01-28T08:08:14;1.10;88.00
33865;DHT22;20159;51.072;13.526;2023-01-28T08:10:39;1.20;88.30
33865;DHT22;20159;51.072;13.526;2023-01-28T08:13:05;1.20;88.40
33865;DHT22;20159;51.072;13.526;2023-01-28T08:15:31;1.20;88.00
33865;DHT22;20159;51.072;13.526;2023-01-28T08:17:58;1.20;87.60
33865;DHT22;20159;51.072;13.526;2023-01-28T08:20:25;1.30;87.20
33865;DHT22;20159;51.072;13.526;2023-01-28T08:22:51;1.30;87.20
33865;DHT22;20159;51.072;13.526;2023-01-28T08:25:16;1.30;87.00
33865;DHT22;20159;51.072;13.526;2023-01-28T08:27:42;1.40;86.80
33865;DHT22;20159;51.072;13.526;2023-01-28T08:30:08;1.40;86.60
33865;DHT22;20159;51.072;13.526;2023-01-28T08:32:36;1.40;86.90
33865;DHT22;20159;51.072;13.526;2023-01-28T08:35:02;1.50;86.90
33865;DHT22;20159;51.072;13.526;2023-01-28T08:37:28;1.50;86.50
33865;DHT22;20159;51.072;13.526;2023-01-28T08:39:54;1.50;86.50
33865;DHT22;20159;51.072;13.526;2023-01-28T08:42:19;1.60;86.40
33865;DHT22;20159;51.072;13.526;2023-01-28T08:44:45;1.70;86.60
33865;DHT22;20159;51.072;13.526;2023-01-28T08:47:12;1.70;86.50
33865;DHT22;20159;51.072;13.526;2023-01-28T08:49:38;1.80;86.10
33865;DHT22;20159;51.072;13.526;2023-01-28T08:52:04;1.80;86.10
33865;DHT22;20159;51.072;13.526;2023-01-28T08:54:29;1.90;86.10
33865;DHT22;20159;51.072;13.526;2023-01-28T08:56:55;1.90;86.20
33865;DHT22;20159;51.072;13.526;2023-01-28T08:59:20;2.00;86.00
33865;DHT22;20159;51.072;13.526;2023-01-28T09:01:46;2.00;86.00
33865;DHT22;20159;51.072;13.526;2023-01-28T09:04:11;2.10;85.60
33865;DHT22;20159;51.072;13.526;2023-01-28T09:06:37;2.10;85.60
33865;DHT22;20159;51.072;13.526;2023-01-28T09:09:02;2.20;86.10
33865;DHT22;20159;51.072;13.526;2023-01-28T09:11:28;2.20;86.50
33865;DHT22;20159;51.072;13.526;2023-01-28T09:13:56;2.30;87.40
33865;DHT22;20159;51.072;13.526;2023-01-28T09:16:22;2.40;89.20
33865;DHT22;20159;51.072;13.526;2023-01-28T09:18:47;2.50;90.20
33865;DHT22;20159;51.072;13.526;2023-01-28T09:21:13;2.70;90.50
33865;DHT22;20159;51.072;13.526;2023-01-28T09:23:39;3.00;90.50
33865;DHT22;20159;51.072;13.526;2023-01-28T09:26:05;3.00;90.30
33865;DHT22;20159;51.072;13.526;2023-01-28T09:28:31;3.20;89.30
33865;DHT22;20159;51.072;13.526;2023-01-28T09:31:10;3.30;87.40
33865;DHT22;20159;51.072;13.526;2023-01-28T09:33:38;3.40;85.30
33865;DHT22;20159;51.072;13.526;2023-01-28T09:36:05;3.40;84.40
33865;DHT22;20159;51.072;13.526;2023-01-28T09:38:31;3.50;84.00
33865;DHT22;20159;51.072;13.526;2023-01-28T09:40:59;3.50;83.70
33865;DHT22;20159;51.072;13.526;2023-01-28T09:46:03;3.50;83.20
33865;DHT22;20159;51.072;13.526;2023-01-28T09:48:36;3.50;83.00
33865;DHT22;20159;51.072;13.526;2023-01-28T09:51:03;3.50;82.80
33865;DHT22;20159;51.072;13.526;2023-01-28T09:53:35;3.50;83.40
33865;DHT22;20159;51.072;13.526;2023-01-28T09:56:08;3.50;83.60
33865;DHT22;20159;51.072;13.526;2023-01-28T09:58:35;3.50;83.40
33865;DHT22;20159;51.072;13.526;2023-01-28T10:01:23;3.50;83.70
33865;DHT22;20159;51.072;13.526;2023-01-28T10:03:58;3.50;82.90
33865;DHT22;20159;51.072;13.526;2023-01-28T10:06:40;3.60;83.00
33865;DHT22;20159;51.072;13.526;2023-01-28T10:09:34;3.50;82.50
33865;DHT22;20159;51.072;13.526;2023-01-28T10:17:44;3.40;82.00
33865;DHT22;20159;51.072;13.526;2023-01-28T10:25:21;3.30;81.10
33865;DHT22;20159;51.072;13.526;2023-01-28T10:27:47;3.30;80.80
33865;DHT22;20159;51.072;13.526;2023-01-28T10:30:18;3.20;80.90
33865;DHT22;20159;51.072;13.526;2023-01-28T10:32:56;3.20;80.40
33865;DHT22;20159;51.072;13.526;2023-01-28T10:35:23;3.10;80.10
33865;DHT22;20159;51.072;13.526;2023-01-28T10:37:51;3.00;80.20
33865;DHT22;20159;51.072;13.526;2023-01-28T10:40:18;3.00;80.30
33865;DHT22;20159;51.072;13.526;2023-01-28T10:42:44;2.90;80.60
33865;DHT22;20159;51.072;13.526;2023-01-28T10:45:45;2.90;81.10
33865;DHT22;20159;51.072;13.526;2023-01-28T10:48:23;2.80;80.40
33865;DHT22;20159;51.072;13.526;2023-01-28T10:50:51;2.80;80.50
33865;DHT22;20159;51.072;13.526;2023-01-28T10:53:17;2.80;80.70
33865;DHT22;20159;51.072;13.526;2023-01-28T10:55:53;2.70;80.60
33865;DHT22;20159;51.072;13.526;2023-01-28T10:58:27;2.70;79.80
33865;DHT22;20159;51.072;13.526;2023-01-28T11:00:58;2.60;79.80
33865;DHT22;20159;51.072;13.526;2023-01-28T11:03:24;2.60;80.80
33865;DHT22;20159;51.072;13.526;2023-01-28T11:05:55;2.60;80.60
33865;DHT22;20159;51.072;13.526;2023-01-28T11:08:24;2.60;80.90
33865;DHT22;20159;51.072;13.526;2023-01-28T11:10:51;2.50;80.80
33865;DHT22;20159;51.072;13.526;2023-01-28T11:13:22;2.50;80.90
33865;DHT22;20159;51.072;13.526;2023-01-28T11:15:48;2.50;81.00
33865;DHT22;20159;51.072;13.526;2023-01-28T11:18:18;2.50;81.30
33865;DHT22;20159;51.072;13.526;2023-01-28T11:20:52;2.50;80.90
33865;DHT22;20159;51.072;13.526;2023-01-28T11:23:24;2.50;81.10
33865;DHT22;20159;51.072;13.526;2023-01-28T11:26:12;2.50;81.40
33865;DHT22;20159;51.072;13.526;2023-01-28T11:28:40;2.50;80.80
33865;DHT22;20159;51.072;13.526;2023-01-28T11:31:06;2.50;81.70
33865;DHT22;20159;51.072;13.526;2023-01-28T11:33:37;2.40;81.40
33865;DHT22;20159;51.072;13.526;2023-01-28T11:36:06;2.40;80.60
33865;DHT22;20159;51.072;13.526;2023-01-28T11:38:32;2.40;80.90
33865;DHT22;20159;51.072;13.526;2023-01-28T11:40:59;2.50;80.90
33865;DHT22;20159;51.072;13.526;2023-01-28T11:43:27;2.40;80.50
33865;DHT22;20159;51.072;13.526;2023-01-28T11:51:21;2.50;81.00
33865;DHT22;20159;51.072;13.526;2023-01-28T11:54:12;2.40;81.10
33865;DHT22;20159;51.072;13.526;2023-01-28T12:02:52;2.50;81.50
33865;DHT22;20159;51.072;13.526;2023-01-28T12:05:32;2.50;81.40
33865;DHT22;20159;51.072;13.526;2023-01-28T12:08:11;2.50;82.10
33865;DHT22;20159;51.072;13.526;2023-01-28T12:16:10;2.60;81.00
33865;DHT22;20159;51.072;13.526;2023-01-28T12:19:07;2.70;81.50
33865;DHT22;20159;51.072;13.526;2023-01-28T12:24:54;2.70;80.30
33865;DHT22;20159;51.072;13.526;2023-01-28T12:30:22;2.80;80.30
33865;DHT22;20159;51.072;13.526;2023-01-28T12:33:05;2.80;80.70
33865;DHT22;20159;51.072;13.526;2023-01-28T12:41:01;2.80;80.20
33865;DHT22;20159;51.072;13.526;2023-01-28T12:46:26;2.80;80.30
33865;DHT22;20159;51.072;13.526;2023-01-28T12:49:02;2.90;80.40
33865;DHT22;20159;51.072;13.526;2023-01-28T12:55:10;2.80;80.60
33865;DHT22;20159;51.072;13.526;2023-01-28T12:57:20;2.80;80.50
33865;DHT22;20159;51.072;13.526;2023-01-28T13:03:04;2.80;80.00
33865;DHT22;20159;51.072;13.526;2023-01-28T13:05:39;2.80;80.40
33865;DHT22;20159;51.072;13.526;2023-01-28T13:08:12;2.80;79.70
33865;DHT22;20159;51.072;13.526;2023-01-28T13:10:45;2.80;79.90
33865;DHT22;20159;51.072;13.526;2023-01-28T13:13:24;2.80;79.90
33865;DHT22;20159;51.072;13.526;2023-01-28T13:15:52;2.80;79.70
33865;DHT22;20159;51.072;13.526;2023-01-28T13:18:41;2.90;80.20
33865;DHT22;20159;51.072;13.526;2023-01-28T13:21:29;2.80;79.70
33865;DHT22;20159;51.072;13.526;2023-01-28T13:24:04;2.80;79.40
33865;DHT22;20159;51.072;13.526;2023-01-28T13:26:43;2.80;80.10
33865;DHT22;20159;51.072;13.526;2023-01-28T13:29:28;2.80;80.20
33865;DHT22;20159;51.072;13.526;2023-01-28T13:31:57;2.80;80.30
33865;DHT22;20159;51.072;13.526;2023-01-28T13:37:00;2.70;80.80
33865;DHT22;20159;51.072;13.526;2023-01-28T13:39:28;2.80;81.00
33865;DHT22;20159;51.072;13.526;2023-01-28T13:42:08;2.70;81.50
33865;DHT22;20159;51.072;13.526;2023-01-28T13:44:36;2.70;80.70
33865;DHT22;20159;51.072;13.526;2023-01-28T13:49:39;2.70;81.00
33865;DHT22;20159;51.072;13.526;2023-01-28T13:52:13;2.70;81.00
33865;DHT22;20159;51.072;13.526;2023-01-28T14:00:56;2.70;80.10
33865;DHT22;20159;51.072;13.526;2023-01-28T14:09:03;2.70;80.60
33865;DHT22;20159;51.072;13.526;2023-01-28T14:15:12;2.60;80.10
33865;DHT22;20159;51.072;13.526;2023-01-28T14:17:47;2.60;80.60
33865;DHT22;20159;51.072;13.526;2023-01-28T14:20:33;2.50;80.50
33865;DHT22;20159;51.072;13.526;2023-01-28T14:23:04;2.50;80.60
33865;DHT22;20159;51.072;13.526;2023-01-28T14:26:02;2.50;80.70
33865;DHT22;20159;51.072;13.526;2023-01-28T14:28:47;2.40;81.30
33865;DHT22;20159;51.072;13.526;2023-01-28T14:31:24;2.40;81.20
33865;DHT22;20159;51.072;13.526;2023-01-28T14:33:50;2.40;81.40
33865;DHT22;20159;51.072;13.526;2023-01-28T14:36:16;2.40;81.60
33865;DHT22;20159;51.072;13.526;2023-01-28T14:38:43;2.30;81.60
33865;DHT22;20159;51.072;13.526;2023-01-28T14:41:22;2.30;81.40
33865;DHT22;20159;51.072;13.526;2023-01-28T14:43:49;2.30;81.20
33865;DHT22;20159;51.072;13.526;2023-01-28T14:46:35;2.20;82.20
33865;DHT22;20159;51.072;13.526;2023-01-28T14:49:15;2.20;81.40
33865;DHT22;20159;51.072;13.526;2023-01-28T14:54:52;2.20;81.40
33865;DHT22;20159;51.072;13.526;2023-01-28T14:57:39;2.20;81.20
33865;DHT22;20159;51.072;13.526;2023-01-28T15:00:24;2.20;80.80
33865;DHT22;20159;51.072;13.526;2023-01-28T15:02:49;2.10;79.90
33865;DHT22;20159;51.072;13.526;2023-01-28T15:05:22;2.10;80.30
33865;DHT22;20159;51.072;13.526;2023-01-28T15:07:48;2.10;80.70
33865;DHT22;20159;51.072;13.526;2023-01-28T15:12:51;2.10;80.70
33865;DHT22;20159;51.072;13.526;2023-01-28T15:15:29;2.00;81.00
33865;DHT22;20159;51.072;13.526;2023-01-28T15:18:27;2.00;80.80
33865;DHT22;20159;51.072;13.526;2023-01-28T15:20:50;2.00;80.70
33865;DHT22;20159;51.072;13.526;2023-01-28T15:23:19;2.00;80.50
33865;DHT22;20159;51.072;13.526;2023-01-28T15:25:47;2.00;80.60
33865;DHT22;20159;51.072;13.526;2023-01-28T15:28:24;2.20;80.80
33865;DHT22;20159;51.072;13.526;2023-01-28T15:30:50;2.00;80.50
33865;DHT22;20159;51.072;13.526;2023-01-28T15:33:16;1.90;80.80
33865;DHT22;20159;51.072;13.526;2023-01-28T15:35:46;1.90;81.10
33865;DHT22;20159;51.072;13.526;2023-01-28T15:38:12;1.90;81.30
33865;DHT22;20159;51.072;13.526;2023-01-28T15:40:49;1.90;80.80
33865;DHT22;20159;51.072;13.526;2023-01-28T15:43:23;1.90;81.10
33865;DHT22;20159;51.072;13.526;2023-01-28T15:45:52;1.90;81.50
33865;DHT22;20159;51.072;13.526;2023-01-28T15:48:20;1.80;81.00
33865;DHT22;20159;51.072;13.526;2023-01-28T15:50:46;2.30;81.40
33865;DHT22;20159;51.072;13.526;2023-01-28T15:53:12;1.70;80.90
33865;DHT22;20159;51.072;13.526;2023-01-28T15:55:45;1.80;81.40
33865;DHT22;20159;51.072;13.526;2023-01-28T16:00:36;2.00;81.80
33865;DHT22;20159;51.072;13.526;2023-01-28T16:03:07;1.70;82.10
33865;DHT22;20159;51.072;13.526;2023-01-28T16:08:10;1.70;81.70
33865;DHT22;20159;51.072;13.526;2023-01-28T16:10:37;1.60;81.30
33865;DHT22;20159;51.072;13.526;2023-01-28T16:13:15;1.60;81.60
33865;DHT22;20159;51.072;13.526;2023-01-28T16:15:53;1.60;82.10
33865;DHT22;20159;51.072;13.526;2023-01-28T16:18:55;1.50;82.80
33865;DHT22;20159;51.072;13.526;2023-01-28T16:21:25;1.60;83.30
33865;DHT22;20159;51.072;13.526;2023-01-28T16:24:22;1.50;83.10
33865;DHT22;20159;51.072;13.526;2023-01-28T16:27:00;1.50;83.20
33865;DHT22;20159;51.072;13.526;2023-01-28T16:29:27;1.50;83.70
33865;DHT22;20159;51.072;13.526;2023-01-28T16:31:53;1.50;83.80
33865;DHT22;20159;51.072;13.526;2023-01-28T16:34:19;1.40;83.80
33865;DHT22;20159;51.072;13.526;2023-01-28T16:36:45;1.40;84.00
33865;DHT22;20159;51.072;13.526;2023-01-28T16:39:10;3.40;85.10
33865;DHT22;20159;51.072;13.526;2023-01-28T16:41:44;1.40;84.20
33865;DHT22;20159;51.072;13.526;2023-01-28T16:44:14;1.40;84.50
33865;DHT22;20159;51.072;13.526;2023-01-28T16:46:40;1.40;84.50
33865;DHT22;20159;51.072;13.526;2023-01-28T16:49:06;1.40;84.70
33865;DHT22;20159;51.072;13.526;2023-01-28T16:51:32;1.30;84.80
33865;DHT22;20159;51.072;13.526;2023-01-28T16:53:59;1.40;84.80
33865;DHT22;20159;51.072;13.526;2023-01-28T16:56:26;1.40;84.50
33865;DHT22;20159;51.072;13.526;2023-01-28T16:58:52;1.30;84.50
33865;DHT22;20159;51.072;13.526;2023-01-28T17:01:18;1.30;84.80
33865;DHT22;20159;51.072;13.526;2023-01-28T17:03:44;1.30;84.70
33865;DHT22;20159;51.072;13.526;2023-01-28T17:06:15;1.40;84.50
33865;DHT22;20159;51.072;13.526;2023-01-28T17:08:41;2.50;85.10
33865;DHT22;20159;51.072;13.526;2023-01-28T17:11:07;2.20;85.30
33865;DHT22;20159;51.072;13.526;2023-01-28T17:13:32;1.30;85.20
33865;DHT22;20159;51.072;13.526;2023-01-28T17:16:02;1.30;85.20
33865;DHT22;20159;51.072;13.526;2023-01-28T17:18:28;1.30;85.40
33865;DHT22;20159;51.072;13.526;2023-01-28T17:20:54;1.30;85.70